Time;durP1;ratioP1;P1;durP2;ratioP2;P2;SDS_P1;SDS_P2;PMS_P1;PMS_P2;Temp;Humidity;BMP_temperature;BMP_pressure;BME280_temperature;BME280_humidity;BME280_pressure;Samples;Min_cycle;Max_cycle;Signal;HPM_P1;HPM_P2
2023/07/03 00:00:15;;;;;;;8.60;2.85;;;;;;;23.69;40.73;100962.69;5032086;28;20033;-70
2023/07/03 00:02:40;;;;;;;;;;;;;;;23.79;40.29;100970.56;5030802;28;20029;-71
2023/07/03 00:05:08;;;;;;;8.13;2.50;;;;;;;23.74;40.32;100973.69;5032062;28;20258;-72
2023/07/03 00:07:34;;;;;;;8.35;2.50;;;;;;;23.71;40.40;100963.38;5031933;28;20037;-73
2023/07/03 00:09:59;;;;;;;8.38;2.95;;;;;;;23.69;40.50;100960.84;5031776;28;20083;-71
2023/07/03 00:12:24;;;;;;;7.40;2.47;;;;;;;23.69;40.30;100960.03;5032419;28;20090;-71
2023/07/03 00:14:50;;;;;;;7.10;2.38;;;;;;;23.68;40.51;100961.03;5031628;28;20490;-71
2023/07/03 00:17:15;;;;;;;7.95;2.85;;;;;;;23.67;40.40;100959.34;5031476;28;20041;-70
2023/07/03 00:19:41;;;;;;;7.22;2.60;;;;;;;23.65;40.39;100958.69;5031398;28;20486;-72
2023/07/03 00:22:06;;;;;;;6.47;2.40;;;;;;;23.65;40.69;100954.19;5031850;28;20529;-72
2023/07/03 00:24:32;;;;;;;7.72;2.70;;;;;;;23.65;40.62;100954.19;5032128;28;20037;-70
2023/07/03 00:26:58;;;;;;;6.95;2.63;;;;;;;23.63;40.34;100956.16;5031620;28;20444;-71
2023/07/03 00:29:24;;;;;;;7.55;2.55;;;;;;;23.61;40.44;100952.03;5032134;28;20041;-72
2023/07/03 00:31:50;;;;;;;8.30;2.40;;;;;;;23.63;40.32;100955.34;5031935;28;20025;-69
2023/07/03 00:34:15;;;;;;;8.05;3.00;;;;;;;23.62;40.53;100948.34;5032082;28;20029;-72
2023/07/03 00:36:41;;;;;;;7.20;2.58;;;;;;;23.63;40.44;100950.84;5032154;28;20091;-71
2023/07/03 00:39:07;;;;;;;7.45;2.50;;;;;;;23.62;40.51;100953.66;5031866;28;20041;-69
2023/07/03 00:41:33;;;;;;;7.78;2.50;;;;;;;23.61;40.31;100949.34;5031784;28;20029;-71
2023/07/03 00:43:58;;;;;;;6.75;2.30;;;;;;;23.60;40.64;100956.47;5031352;28;20840;-71
2023/07/03 00:46:24;;;;;;;7.03;2.60;;;;;;;23.60;40.64;100950.34;5031748;28;20032;-70
2023/07/03 00:48:50;;;;;;;7.35;2.53;;;;;;;23.59;40.50;100949.53;5031546;28;20825;-70
2023/07/03 00:51:16;;;;;;;8.50;2.35;;;;;;;23.60;40.76;100950.34;5031885;28;20681;-69
2023/07/03 00:53:42;;;;;;;7.57;2.67;;;;;;;23.59;40.47;100930.91;5031189;28;20474;-70
2023/07/03 00:56:08;;;;;;;6.10;2.17;;;;;;;23.57;40.47;100940.84;5029324;28;20464;-71
2023/07/03 00:58:34;;;;;;;8.82;2.38;;;;;;;23.58;40.26;100952.34;5031906;28;20052;-71
2023/07/03 01:01:10;;;;;;;9.45;2.80;;;;;;;23.55;40.73;100940.19;5031345;28;20361;-70
2023/07/03 01:03:40;;;;;;;7.55;2.45;;;;;;;23.59;40.77;100943.34;5031062;28;20036;-70
2023/07/03 01:06:12;;;;;;;10.25;2.67;;;;;;;23.57;40.55;100940.00;5031904;28;20032;-72
2023/07/03 01:08:39;;;;;;;6.82;2.25;;;;;;;23.57;40.86;100940.00;5031914;28;20037;-71
2023/07/03 01:11:06;;;;;;;7.45;2.42;;;;;;;23.56;40.46;100944.50;5031610;28;20032;-72
2023/07/03 01:13:34;;;;;;;7.03;3.00;;;;;;;23.55;40.61;100938.34;5031190;28;20075;-72
2023/07/03 01:16:04;;;;;;;7.70;2.47;;;;;;;23.54;40.46;100935.84;5030381;28;20477;-70
2023/07/03 01:18:30;;;;;;;6.90;2.60;;;;;;;23.55;40.47;100935.69;5030873;28;20030;-71
2023/07/03 01:21:05;;;;;;;8.63;3.13;;;;;;;23.54;40.64;100947.34;5030979;28;20049;-70
2023/07/03 01:23:41;;;;;;;7.82;2.17;;;;;;;23.53;40.62;100942.16;5030717;28;20186;-70
2023/07/03 01:26:09;;;;;;;7.90;2.75;;;;;;;23.56;40.67;100949.84;5031462;28;20137;-71
2023/07/03 01:28:36;;;;;;;7.25;2.30;;;;;;;23.52;40.80;100943.16;5031569;28;20037;-70
2023/07/03 01:31:07;;;;;;;5.70;2.15;;;;;;;23.53;40.51;100945.66;5030800;28;20040;-73
2023/07/03 01:33:34;;;;;;;8.38;2.75;;;;;;;23.53;40.66;100945.66;5030518;28;20100;-72
2023/07/03 01:36:01;;;;;;;8.35;2.38;;;;;;;23.52;40.88;100943.97;5031341;28;20541;-70
2023/07/03 01:38:29;;;;;;;7.53;2.70;;;;;;;23.52;40.80;100945.81;5030761;28;20029;-70
2023/07/03 01:40:56;;;;;;;7.90;2.60;;;;;;;23.52;40.32;100949.28;5031121;28;20123;-72
2023/07/03 01:43:22;;;;;;;9.32;3.15;;;;;;;23.53;40.41;100942.16;5031053;28;20469;-69
2023/07/03 01:45:48;;;;;;;8.40;3.00;;;;;;;23.53;40.50;100942.16;5031519;28;20045;-73
2023/07/03 01:48:15;;;;;;;8.82;3.00;;;;;;;23.51;40.31;100938.81;5030636;28;20072;-70
2023/07/03 01:50:41;;;;;;;8.88;2.60;;;;;;;23.52;40.58;100943.16;5030254;28;20052;-72
2023/07/03 01:53:16;;;;;;;5.80;2.40;;;;;;;23.48;40.75;100936.47;5031053;28;20045;-72
2023/07/03 01:56:06;;;;;;;8.02;2.42;;;;;;;23.49;40.70;100935.47;5031164;28;20052;-73
2023/07/03 01:58:42;;;;;;;6.22;2.30;;;;;;;23.47;40.51;100929.50;5030904;28;20465;-70
2023/07/03 02:01:15;;;;;;;9.27;2.78;;;;;;;23.48;40.76;100937.31;5030891;28;20028;-74
2023/07/03 02:03:48;;;;;;;8.15;2.72;;;;;;;23.50;40.57;100934.50;5029858;28;20021;-68
2023/07/03 02:06:20;;;;;;;9.10;2.88;;;;;;;23.48;40.84;100932.00;5030638;28;20037;-71
2023/07/03 02:08:48;;;;;;;8.77;3.17;;;;;;;23.48;40.52;100929.34;5030348;28;20037;-71
2023/07/03 02:11:18;;;;;;;8.13;2.60;;;;;;;23.47;40.90;100932.16;5031145;28;20037;-73
2023/07/03 02:13:44;;;;;;;9.27;2.42;;;;;;;23.48;40.85;100929.34;5030643;28;20040;-70
2023/07/03 02:16:09;;;;;;;8.90;2.45;;;;;;;23.48;40.65;100929.34;5029593;28;20033;-71
2023/07/03 02:18:35;;;;;;;8.25;2.70;;;;;;;23.46;40.99;100927.81;5030112;28;20121;-71
2023/07/03 02:21:00;;;;;;;7.22;2.65;;;;;;;23.46;40.77;100928.63;5030553;28;20390;-71
2023/07/03 02:23:26;;;;;;;8.02;2.65;;;;;;;23.45;40.98;100926.13;5030731;28;20385;-72
2023/07/03 02:25:52;;;;;;;7.70;2.83;;;;;;;23.45;41.18;100920.81;5033662;28;21003;-72
2023/07/03 02:28:18;;;;;;;7.28;2.50;;;;;;;23.44;40.85;100920.00;5033978;28;20036;-70
2023/07/03 02:30:44;;;;;;;6.82;2.25;;;;;;;23.44;41.26;100914.69;5034353;28;21303;-70
2023/07/03 02:33:10;;;;;;;6.70;2.72;;;;;;;23.45;41.31;100921.66;5034259;28;20029;-69
2023/07/03 02:35:37;;;;;;;7.68;2.67;;;;;;;23.44;41.14;100920.00;5033941;28;20088;-70
2023/07/03 02:38:02;;;;;;;7.15;2.30;;;;;;;23.43;40.81;100917.50;5034207;28;20503;-70
2023/07/03 02:40:28;;;;;;;8.75;2.80;;;;;;;23.44;41.37;100913.84;5034507;28;20053;-71
2023/07/03 02:42:53;;;;;;;9.00;2.45;;;;;;;23.44;41.30;100925.31;5033311;28;20144;-70
2023/07/03 02:45:19;;;;;;;9.48;2.90;;;;;;;23.45;41.04;100915.50;5032102;28;20034;-71
2023/07/03 02:47:45;;;;;;;9.45;2.75;;;;;;;23.42;41.27;100914.00;5033275;28;20033;-69
2023/07/03 02:50:10;;;;;;;7.10;2.67;;;;;;;23.43;41.39;100917.50;5034494;28;20468;-70
2023/07/03 02:52:36;;;;;;;8.25;3.03;;;;;;;23.41;41.29;100904.34;5033292;28;20362;-73
2023/07/03 02:55:01;;;;;;;11.73;3.97;;;;;;;23.41;41.21;100911.50;5032721;28;20113;-70
2023/07/03 02:57:28;;;;;;;10.15;3.35;;;;;;;23.40;41.18;100907.16;5033373;28;20040;-69
2023/07/03 02:59:53;;;;;;;11.40;2.88;;;;;;;23.41;41.50;100895.56;5033137;28;20505;-70
2023/07/03 03:02:19;;;;;;;8.05;2.88;;;;;;;23.39;41.42;100906.34;5034089;28;20116;-70
2023/07/03 03:04:47;;;;;;;8.85;2.83;;;;;;;23.40;41.24;100916.00;5033374;28;20060;-73
2023/07/03 03:07:12;;;;;;;8.68;2.90;;;;;;;23.39;41.38;100905.53;5033516;28;20489;-72
2023/07/03 03:09:38;;;;;;;8.10;2.83;;;;;;;23.41;41.42;100912.31;5034643;28;20029;-73
2023/07/03 03:12:03;;;;;;;7.65;2.33;;;;;;;23.40;41.34;100897.38;5033052;28;20825;-71
2023/07/03 03:14:28;;;;;;;8.18;2.90;;;;;;;23.41;41.11;100912.31;5033076;28;20065;-70
2023/07/03 03:16:54;;;;;;;8.23;2.97;;;;;;;23.39;41.21;100909.00;5032655;28;20401;-72
2023/07/03 03:19:19;;;;;;;10.85;3.08;;;;;;;23.38;41.58;100907.31;5033222;28;20413;-70
2023/07/03 03:21:44;;;;;;;7.50;2.42;;;;;;;23.40;41.27;100901.84;5033561;28;20076;-69
2023/07/03 03:24:10;;;;;;;7.78;2.83;;;;;;;23.39;41.30;100910.84;5032473;28;20065;-68
2023/07/03 03:26:35;;;;;;;8.20;2.83;;;;;;;23.37;41.59;100889.72;5032040;28;20034;-74
2023/07/03 03:29:00;;;;;;;8.75;2.83;;;;;;;23.39;41.49;100889.56;5032998;28;20025;-70
2023/07/03 03:31:26;;;;;;;10.25;3.28;;;;;;;23.33;41.54;100891.03;5033663;28;20033;-70
2023/07/03 03:33:51;;;;;;;11.02;3.28;;;;;;;23.36;41.35;100896.03;5033560;28;20477;-70
2023/07/03 03:36:17;;;;;;;8.25;3.03;;;;;;;23.37;41.90;100908.34;5031065;28;20057;-72
2023/07/03 03:38:42;;;;;;;8.48;2.50;;;;;;;23.38;41.63;100895.88;5033091;28;20077;-70
2023/07/03 03:41:08;;;;;;;8.47;2.80;;;;;;;23.34;41.89;100900.66;5032026;28;20037;-70
2023/07/03 03:43:34;;;;;;;8.18;2.97;;;;;;;23.35;41.43;100900.50;5032767;28;20282;-69
2023/07/03 03:46:01;;;;;;;8.50;3.15;;;;;;;23.35;41.73;100902.31;5031726;28;20587;-71
2023/07/03 03:48:27;;;;;;;10.05;2.83;;;;;;;23.34;41.86;100898.84;5032799;28;20041;-70
2023/07/03 03:50:53;;;;;;;8.98;3.10;;;;;;;23.35;41.69;100889.88;5032485;28;20465;-70
2023/07/03 03:53:19;;;;;;;7.65;2.92;;;;;;;23.34;41.48;100898.00;5032352;28;20040;-70
2023/07/03 03:55:49;;;;;;;10.55;3.55;;;;;;;23.33;41.69;100904.31;5032100;28;20037;-72
2023/07/03 03:58:15;;;;;;;9.93;3.22;;;;;;;23.34;41.83;100904.16;5032455;28;20450;-70
2023/07/03 04:00:41;;;;;;;9.70;3.28;;;;;;;23.32;42.06;100903.50;5031463;28;20052;-70
2023/07/03 04:03:06;;;;;;;7.85;2.90;;;;;;;23.33;42.20;100902.47;5031116;28;20751;-72
2023/07/03 04:05:32;;;;;;;9.52;2.80;;;;;;;23.32;42.07;100897.31;5032510;28;20454;-72
2023/07/03 04:07:57;;;;;;;8.68;2.97;;;;;;;23.33;41.96;100906.97;5031941;28;20033;-70
2023/07/03 04:10:22;;;;;;;7.72;2.83;;;;;;;23.31;42.13;100898.31;5032616;28;20057;-70
2023/07/03 04:12:48;;;;;;;7.50;2.88;;;;;;;23.31;42.35;100899.16;5032646;28;20038;-71
2023/07/03 04:15:14;;;;;;;9.55;3.25;;;;;;;23.33;41.75;100904.31;5031597;28;20035;-70
2023/07/03 04:17:39;;;;;;;9.27;3.20;;;;;;;23.31;41.94;100906.31;5032185;28;20150;-71
2023/07/03 04:20:17;;;;;;;10.43;3.10;;;;;;;23.32;41.59;100910.59;5033011;28;20454;-72
2023/07/03 04:22:43;;;;;;;9.02;3.28;;;;;;;23.25;41.86;100891.81;5032232;28;20025;-71
2023/07/03 04:25:08;;;;;;;8.43;3.05;;;;;;;23.31;42.07;100914.28;5031817;28;20087;-70
2023/07/03 04:27:35;;;;;;;7.45;2.88;;;;;;;23.31;42.07;100907.13;5032344;28;20039;-70
2023/07/03 04:30:01;;;;;;;10.65;3.00;;;;;;;23.31;42.41;100908.97;5031997;28;20041;-69
2023/07/03 04:32:28;;;;;;;8.68;2.88;;;;;;;23.30;42.40;100910.78;5031070;28;20040;-72
2023/07/03 04:34:53;;;;;;;9.98;3.22;;;;;;;23.29;42.58;100906.47;5032149;28;20063;-69
2023/07/03 04:37:18;;;;;;;8.93;2.92;;;;;;;23.28;42.49;100907.44;5030921;28;20042;-70
2023/07/03 04:39:43;;;;;;;9.60;3.17;;;;;;;23.24;42.21;100900.78;5031149;28;20040;-70
2023/07/03 04:42:13;;;;;;;10.63;3.10;;;;;;;23.29;42.54;100903.81;5032327;28;20056;-70
2023/07/03 04:44:39;;;;;;;8.82;3.17;;;;;;;23.27;42.19;100908.41;5031298;28;20080;-70
2023/07/03 04:47:05;;;;;;;9.93;3.45;;;;;;;23.29;42.60;100909.13;5030948;28;20048;-70
2023/07/03 04:49:31;;;;;;;10.50;2.80;;;;;;;23.26;42.65;100909.44;5030826;28;20029;-71
2023/07/03 04:51:58;;;;;;;9.65;3.10;;;;;;;23.27;42.20;100910.25;5030968;28;20036;-70
2023/07/03 04:54:24;;;;;;;10.90;3.42;;;;;;;23.28;42.38;100914.59;5030842;28;20033;-73
2023/07/03 04:56:49;;;;;;;9.13;3.40;;;;;;;23.27;42.71;100915.56;5031148;28;20041;-70
2023/07/03 04:59:15;;;;;;;9.73;3.00;;;;;;;23.28;42.41;100920.72;5030868;28;20389;-72
2023/07/03 05:01:42;;;;;;;9.13;2.88;;;;;;;23.27;42.57;100924.38;5032285;28;20083;-70
2023/07/03 05:04:11;;;;;;;10.38;3.05;;;;;;;23.27;42.88;100918.22;5031365;28;20742;-72
2023/07/03 05:06:37;;;;;;;12.00;3.20;;;;;;;23.26;42.78;100920.06;5031183;28;20040;-70
2023/07/03 05:09:03;;;;;;;11.38;3.40;;;;;;;23.27;42.51;100927.03;5031102;28;20037;-70
2023/07/03 05:11:29;;;;;;;9.02;2.88;;;;;;;23.26;42.88;100928.03;5031281;28;20065;-72
2023/07/03 05:13:56;;;;;;;9.25;3.08;;;;;;;23.24;43.01;100919.41;5030024;28;20632;-70
2023/07/03 05:16:21;;;;;;;8.60;3.15;;;;;;;23.26;42.98;100932.53;5030848;28;20155;-71
2023/07/03 05:18:46;;;;;;;12.27;3.42;;;;;;;23.26;43.02;100938.69;5030583;28;20071;-70
2023/07/03 05:21:12;;;;;;;10.55;3.10;;;;;;;23.28;42.94;100933.19;5031237;28;20052;-73
2023/07/03 05:23:37;;;;;;;12.10;3.28;;;;;;;23.28;42.99;100935.88;5030993;28;20098;-70
2023/07/03 05:26:03;;;;;;;7.93;2.90;;;;;;;23.26;42.90;100941.34;5031106;28;20440;-69
2023/07/03 05:28:29;;;;;;;8.68;2.95;;;;;;;23.25;43.22;100942.31;5030909;28;20066;-69
2023/07/03 05:30:56;;;;;;;10.13;3.30;;;;;;;23.26;43.16;100946.66;5028913;28;20029;-71
2023/07/03 05:33:21;;;;;;;10.27;3.15;;;;;;;23.27;43.27;100950.13;5031115;28;20034;-70
2023/07/03 05:35:47;;;;;;;10.15;3.20;;;;;;;23.26;43.15;100954.63;5030936;28;20037;-72
2023/07/03 05:38:12;;;;;;;10.10;3.38;;;;;;;23.25;42.77;100947.63;5030202;28;20060;-71
2023/07/03 05:40:37;;;;;;;10.18;3.33;;;;;;;23.27;43.27;100955.44;5030853;28;20123;-71
2023/07/03 05:43:03;;;;;;;8.82;3.28;;;;;;;23.25;42.82;100944.97;5031236;28;20047;-71
2023/07/03 05:45:28;;;;;;;10.52;3.55;;;;;;;23.26;43.39;100949.31;5030641;28;20033;-71
2023/07/03 05:47:53;;;;;;;9.45;3.00;;;;;;;23.24;43.15;100945.13;5030964;28;20033;-73
2023/07/03 05:50:19;;;;;;;9.98;3.35;;;;;;;23.26;43.02;100953.81;5030724;28;20094;-70
2023/07/03 05:52:44;;;;;;;9.77;3.23;;;;;;;23.24;43.31;100950.44;5030124;28;20041;-72
2023/07/03 05:55:10;;;;;;;9.80;3.25;;;;;;;23.25;43.09;100958.28;5030648;28;20906;-69
2023/07/03 05:57:36;;;;;;;9.65;3.17;;;;;;;23.24;43.17;100959.28;5030490;28;20988;-69
2023/07/03 06:00:03;;;;;;;10.35;3.58;;;;;;;23.23;43.50;100952.28;5032609;28;20041;-69
2023/07/03 06:02:29;;;;;;;9.02;3.28;;;;;;;23.24;43.34;100950.44;5034400;28;20036;-71
2023/07/03 06:04:54;;;;;;;9.40;3.00;;;;;;;23.23;43.12;100949.63;5034368;28;20603;-71
2023/07/03 06:07:19;;;;;;;9.73;3.30;;;;;;;23.23;43.52;100948.81;5034310;28;20033;-70
2023/07/03 06:09:45;;;;;;;9.35;2.88;;;;;;;23.25;43.22;100957.44;5034737;28;20044;-69
2023/07/03 06:12:11;;;;;;;12.02;3.70;;;;;;;23.23;43.46;100954.13;5033845;28;20033;-70
2023/07/03 06:14:36;;;;;;;10.88;3.30;;;;;;;23.24;43.63;100956.63;5033824;28;20614;-72
2023/07/03 06:17:02;;;;;;;8.38;2.88;;;;;;;23.24;43.62;100961.09;5034263;28;20041;-71
2023/07/03 06:19:28;;;;;;;10.90;3.60;;;;;;;23.24;43.62;100956.63;5034029;28;20294;-73
2023/07/03 06:21:54;;;;;;;11.23;3.72;;;;;;;23.24;43.50;100945.13;5034031;28;20052;-70
2023/07/03 06:24:20;;;;;;;10.15;3.50;;;;;;;23.23;43.34;100960.25;5033613;28;20116;-71
2023/07/03 06:26:45;;;;;;;9.82;3.38;;;;;;;23.23;43.26;100956.78;5033681;28;20124;-72
2023/07/03 06:29:12;;;;;;;8.63;3.08;;;;;;;23.27;43.49;100968.75;5033805;28;20029;-70
2023/07/03 06:31:37;;;;;;;7.88;3.03;;;;;;;23.25;43.63;100966.25;5033764;28;20637;-69
2023/07/03 06:34:03;;;;;;;9.45;3.00;;;;;;;23.25;43.79;100957.44;5039767;28;21407;-71
2023/07/03 06:36:31;;;;;;;10.18;3.17;;;;;;;23.28;43.85;100959.78;5032893;28;20537;-71
2023/07/03 06:38:59;;;;;;;11.43;3.17;;;;;;;23.26;43.65;100959.13;5032199;28;20037;-71
2023/07/03 06:41:27;;;;;;;11.35;3.63;;;;;;;23.28;44.11;100965.94;5033608;28;20095;-72
2023/07/03 06:43:53;;;;;;;11.32;3.30;;;;;;;23.31;43.88;100965.63;5034026;28;20563;-71
2023/07/03 06:46:19;;;;;;;8.40;2.90;;;;;;;23.30;44.09;100955.97;5034175;28;20116;-73
2023/07/03 06:48:44;;;;;;;10.23;2.92;;;;;;;23.31;43.85;100955.00;5034534;28;20055;-71
2023/07/03 06:51:12;;;;;;;10.15;3.45;;;;;;;23.32;44.15;100950.50;5033833;28;20480;-72
2023/07/03 06:53:37;;;;;;;8.25;3.17;;;;;;;23.30;44.03;100953.31;5033984;28;21365;-71
2023/07/03 06:56:03;;;;;;;9.98;3.25;;;;;;;23.31;44.23;100952.31;5033169;28;20679;-71
2023/07/03 06:58:30;;;;;;;9.68;3.00;;;;;;;23.27;44.03;100950.97;5033852;28;20033;-71
2023/07/03 07:00:56;;;;;;;9.20;2.90;;;;;;;23.34;44.10;100953.84;5034231;28;20500;-72
2023/07/03 07:03:22;;;;;;;10.13;3.47;;;;;;;23.35;44.38;100960.81;5033060;28;20037;-70
2023/07/03 07:05:47;;;;;;;8.88;2.97;;;;;;;23.35;44.42;100963.47;5033117;28;20029;-71
2023/07/03 07:08:16;;;;;;;11.27;3.50;;;;;;;23.33;44.20;100971.63;5030968;28;20469;-70
2023/07/03 07:10:43;;;;;;;7.75;2.60;;;;;;;23.35;44.47;100971.47;5032923;28;20536;-74
2023/07/03 07:13:09;;;;;;;9.57;3.05;;;;;;;23.33;44.29;100978.75;5031413;28;20072;-73
2023/07/03 07:15:38;;;;;;;11.38;3.33;;;;;;;23.32;44.36;100979.75;5030776;28;20033;-73
2023/07/03 07:18:06;;;;;;;8.07;2.75;;;;;;;23.35;44.79;100968.78;5032982;28;20039;-73
2023/07/03 07:20:39;;;;;;;7.72;2.90;;;;;;;23.31;44.40;100964.81;5032971;28;20080;-73
2023/07/03 07:23:04;;;;;;;9.93;3.33;;;;;;;23.36;44.39;100970.47;5033002;28;20033;-73
2023/07/03 07:25:29;;;;;;;8.98;3.08;;;;;;;23.36;44.40;100975.78;5031173;28;20091;-71
2023/07/03 07:27:55;;;;;;;8.93;2.50;;;;;;;23.37;44.85;100977.47;5033564;28;20454;-73
2023/07/03 07:30:20;;;;;;;9.83;3.33;;;;;;;23.36;44.67;100971.31;5033356;28;20466;-73
2023/07/03 07:32:49;;;;;;;9.38;2.92;;;;;;;23.36;44.57;100970.47;5032980;28;20274;-74
2023/07/03 07:35:15;;;;;;;8.43;3.17;;;;;;;23.35;44.85;100974.13;5032557;28;20072;-74
2023/07/03 07:37:41;;;;;;;9.20;3.15;;;;;;;23.38;44.42;100971.16;5032582;28;20033;-74
2023/07/03 07:40:07;;;;;;;8.75;2.88;;;;;;;23.37;44.44;100972.16;5032308;28;20029;-69
2023/07/03 07:42:32;;;;;;;12.68;3.25;;;;;;;23.40;44.88;100982.47;5030274;28;20041;-65
2023/07/03 07:44:58;;;;;;;10.30;3.10;;;;;;;23.32;44.79;100979.75;5033150;28;20037;-69
2023/07/03 07:47:23;;;;;;;8.15;2.75;;;;;;;23.41;44.84;100985.97;5031993;28;20029;-68
2023/07/03 07:49:48;;;;;;;10.20;3.28;;;;;;;23.43;44.63;100979.50;5032089;28;20032;-68
2023/07/03 07:52:15;;;;;;;7.78;2.67;;;;;;;23.46;44.56;100984.50;5032239;28;20033;-68
2023/07/03 07:54:41;;;;;;;9.95;3.33;;;;;;;23.42;44.38;100977.00;5032612;28;20123;-66
2023/07/03 07:57:06;;;;;;;8.32;3.10;;;;;;;23.47;44.67;100991.50;5031785;28;20446;-68
2023/07/03 07:59:34;;;;;;;8.00;2.92;;;;;;;23.49;44.12;100999.31;5029598;28;20037;-69
2023/07/03 08:01:59;;;;;;;9.77;2.95;;;;;;;23.57;44.23;100998.53;5031817;28;20040;-69
2023/07/03 08:04:25;;;;;;;6.80;2.58;;;;;;;23.60;44.34;100990.25;5031284;28;20096;-68
2023/07/03 08:06:50;;;;;;;9.88;3.15;;;;;;;23.65;44.30;100999.41;5031495;28;20118;-67
2023/07/03 08:09:15;;;;;;;9.70;2.60;;;;;;;23.67;43.84;101001.91;5031024;28;20037;-66
2023/07/03 08:11:43;;;;;;;12.23;3.17;;;;;;;23.70;43.67;100999.78;5031261;28;20033;-64
2023/07/03 08:14:08;;;;;;;10.15;2.75;;;;;;;23.72;43.43;100996.97;5031192;28;20040;-67
2023/07/03 08:16:34;;;;;;;8.20;2.67;;;;;;;23.74;43.76;101005.63;5031280;28;20037;-66
2023/07/03 08:18:59;;;;;;;9.77;2.92;;;;;;;23.76;43.42;101006.28;5030433;28;20389;-66
2023/07/03 08:21:24;;;;;;;9.47;2.83;;;;;;;23.77;43.48;101002.66;5030524;28;20064;-66
2023/07/03 08:23:50;;;;;;;10.65;2.90;;;;;;;23.81;43.04;101013.81;5030977;28;20799;-67
2023/07/03 08:26:20;;;;;;;10.00;2.70;;;;;;;23.81;43.56;101016.47;5031526;28;20036;-66
2023/07/03 08:28:46;;;;;;;8.55;2.47;;;;;;;23.85;42.85;101023.19;5031264;28;20111;-67
2023/07/03 08:31:11;;;;;;;7.75;2.50;;;;;;;23.86;43.29;101014.19;5030869;28;20433;-66
2023/07/03 08:33:37;;;;;;;8.25;2.78;;;;;;;23.87;43.13;101027.34;5030583;28;20537;-66
2023/07/03 08:36:02;;;;;;;8.35;2.83;;;;;;;23.89;42.82;101028.03;5029938;28;20041;-65
2023/07/03 08:38:27;;;;;;;11.55;3.08;;;;;;;23.89;42.93;101017.38;5030793;28;20059;-67
2023/07/03 08:40:58;;;;;;;8.23;2.72;;;;;;;23.89;42.67;101020.03;5031147;28;20039;-65
2023/07/03 08:43:23;;;;;;;9.23;3.00;;;;;;;23.92;42.66;101018.06;5030539;28;20037;-67
2023/07/03 08:45:50;;;;;;;11.80;2.80;;;;;;;23.93;42.80;101014.41;5030351;28;20871;-70
2023/07/03 08:48:28;;;;;;;7.22;2.63;;;;;;;23.91;42.87;101022.56;5031084;28;20029;-66
2023/07/03 08:50:59;;;;;;;10.55;3.25;;;;;;;23.93;42.66;101014.41;5030957;28;20025;-67
2023/07/03 08:53:34;;;;;;;10.40;3.08;;;;;;;23.92;42.91;101010.88;5030398;28;20033;-66
2023/07/03 08:56:07;;;;;;;9.40;2.65;;;;;;;23.90;42.71;101003.06;5030359;28;20037;-65
2023/07/03 08:58:33;;;;;;;7.22;2.70;;;;;;;23.97;42.47;101016.56;5030662;28;20389;-64
2023/07/03 09:01:17;;;;;;;8.82;2.90;;;;;;;23.94;42.40;101013.41;5029581;28;20069;-69
2023/07/03 09:04:05;;;;;;;;;;;;;;;24.01;42.35;101022.44;5030975;28;20429;-68
2023/07/03 09:06:50;;;;;;;9.65;2.50;;;;;;;24.02;42.33;101026.75;5030545;28;19917;-68
2023/07/03 09:09:27;;;;;;;8.05;2.72;;;;;;;24.01;42.33;101027.75;5030274;28;20040;-67
2023/07/03 09:12:17;;;;;;;7.82;2.65;;;;;;;24.00;42.32;101026.06;5030843;28;20041;-67
2023/07/03 09:14:49;;;;;;;7.72;2.53;;;;;;;24.01;42.35;101017.09;5023915;28;20513;-68
2023/07/03 09:17:15;;;;;;;8.68;2.45;;;;;;;24.02;42.29;101016.09;5030687;28;20838;-67
2023/07/03 09:19:44;;;;;;;8.95;3.10;;;;;;;24.03;42.77;101015.09;5029475;28;20091;-69
2023/07/03 09:22:34;;;;;;;9.38;3.03;;;;;;;24.01;42.63;101011.78;5030078;28;20033;-67
2023/07/03 09:25:03;;;;;;;8.27;2.70;;;;;;;24.04;42.37;101006.13;5021931;28;20029;-65
2023/07/03 09:27:29;;;;;;;10.05;3.30;;;;;;;24.08;42.64;101012.78;5029635;28;20112;-66
2023/07/03 09:30:04;;;;;;;8.73;2.80;;;;;;;24.03;42.38;101013.28;5030373;28;20503;-66
2023/07/03 09:32:31;;;;;;;9.77;2.50;;;;;;;24.04;42.60;100998.97;5031460;28;20037;-66
2023/07/03 09:35:03;;;;;;;7.72;2.78;;;;;;;24.06;42.23;101018.28;5034483;28;20033;-67
2023/07/03 09:37:29;;;;;;;9.45;3.53;;;;;;;24.06;42.08;101010.28;5040316;28;20382;-68
2023/07/03 09:39:54;;;;;;;6.95;2.67;;;;;;;24.05;42.25;101013.09;5034586;28;20064;-67
2023/07/03 09:42:21;;;;;;;8.82;3.17;;;;;;;24.08;42.21;101021.63;5034197;28;20045;-68
2023/07/03 09:44:46;;;;;;;9.13;2.80;;;;;;;24.06;42.53;101020.94;5034013;28;20048;-66
2023/07/03 09:47:26;;;;;;;12.10;3.37;;;;;;;24.04;42.51;101020.28;5033416;28;20033;-68
2023/07/03 09:49:52;;;;;;;7.50;2.60;;;;;;;24.09;42.29;101011.81;5034000;28;20262;-66
2023/07/03 09:52:17;;;;;;;12.35;3.20;;;;;;;24.09;42.20;101006.47;5033606;28;20031;-66
2023/07/03 09:54:45;;;;;;;7.65;2.88;;;;;;;24.10;42.02;101021.47;5033435;28;20123;-68
2023/07/03 09:57:19;;;;;;;7.80;2.90;;;;;;;24.08;42.16;101026.97;5033677;28;20509;-69
2023/07/03 09:59:44;;;;;;;;;;;;;;;24.18;42.27;101020.66;5033699;28;20059;-66
2023/07/03 10:02:11;;;;;;;9.10;3.20;;;;;;;24.15;42.22;101024.47;5034010;28;20939;-68
2023/07/03 10:04:44;;;;;;;9.50;3.38;;;;;;;24.13;42.33;101020.31;5033797;28;20037;-65
2023/07/03 10:07:14;;;;;;;9.25;2.75;;;;;;;24.14;41.90;101014.00;5032272;28;20496;-68
2023/07/03 10:09:41;;;;;;;8.60;2.60;;;;;;;24.13;41.59;101020.31;5032619;28;20033;-68
2023/07/03 10:12:13;;;;;;;5.95;2.90;;;;;;;24.11;41.80;101017.78;5033464;28;20078;-68
2023/07/03 10:14:53;;;;;;;9.40;3.00;;;;;;;24.13;41.61;101012.31;5032907;28;20045;-67
2023/07/03 10:17:33;;;;;;;6.78;2.72;;;;;;;24.12;41.92;101024.81;5031628;28;20508;-69
2023/07/03 10:20:10;;;;;;;7.20;2.53;;;;;;;24.15;41.28;101029.81;5032193;28;20053;-67
2023/07/03 10:22:39;;;;;;;9.48;3.00;;;;;;;24.18;41.75;101036.63;5032881;28;20120;-66
2023/07/03 10:25:09;;;;;;;11.60;2.95;;;;;;;24.19;41.13;101035.63;5033370;28;20050;-63
2023/07/03 10:27:36;;;;;;;13.40;2.67;;;;;;;24.19;41.52;101048.94;5032484;28;20036;-66
2023/07/03 10:30:05;;;;;;;11.82;2.80;;;;;;;24.18;41.46;101042.81;5030957;28;20404;-66
2023/07/03 10:32:33;;;;;;;9.10;3.05;;;;;;;24.18;41.15;101047.28;5033370;28;20064;-68
2023/07/03 10:35:22;;;;;;;7.85;2.53;;;;;;;24.16;41.34;101041.28;5033504;28;20033;-66
2023/07/03 10:37:59;;;;;;;8.55;2.28;;;;;;;24.17;41.28;101049.13;5031890;28;20397;-67
2023/07/03 10:40:56;;;;;;;8.50;2.85;;;;;;;24.18;41.32;101045.47;5032505;28;20154;-66
2023/07/03 10:43:25;;;;;;;8.52;2.72;;;;;;;24.19;40.83;101043.63;4996251;28;20106;-64
2023/07/03 10:45:51;;;;;;;9.10;2.92;;;;;;;24.19;41.26;101046.28;5033115;28;20034;-65
2023/07/03 10:48:20;;;;;;;8.43;2.85;;;;;;;24.15;40.87;101042.25;5033066;28;20060;-66
2023/07/03 10:50:54;;;;;;;6.60;2.67;;;;;;;24.09;40.88;101049.91;5031912;28;20040;-67
2023/07/03 10:53:26;;;;;;;11.73;2.50;;;;;;;24.16;40.85;101063.41;5031355;28;20044;-69
2023/07/03 10:56:04;;;;;;;8.65;2.60;;;;;;;24.17;40.96;101043.78;5031602;28;20025;-65
2023/07/03 10:58:54;;;;;;;12.60;3.05;;;;;;;24.17;40.67;101050.94;5031519;28;20033;-64
2023/07/03 11:01:40;;;;;;;7.40;2.80;;;;;;;24.21;40.76;101052.28;5032269;28;20536;-67
2023/07/03 11:04:42;;;;;;;8.23;2.50;;;;;;;24.17;40.69;101022.47;5031946;28;20473;-63
2023/07/03 11:07:24;;;;;;;7.47;2.53;;;;;;;24.16;40.44;101041.28;5031720;28;20068;-67
2023/07/03 11:10:08;;;;;;;10.13;3.10;;;;;;;24.20;40.89;101045.31;5032658;28;20061;-67
2023/07/03 11:12:51;;;;;;;8.02;2.40;;;;;;;24.21;40.25;101044.28;5032500;28;20092;-67
2023/07/03 11:15:36;;;;;;;7.10;2.38;;;;;;;24.21;40.67;101039.81;5032495;28;20479;-67
2023/07/03 11:18:19;;;;;;;9.20;2.58;;;;;;;24.22;40.53;101044.13;5031797;28;20064;-67
2023/07/03 11:20:58;;;;;;;8.77;2.20;;;;;;;24.23;40.42;101048.47;5032466;28;20064;-69
2023/07/03 11:23:42;;;;;;;10.13;2.58;;;;;;;24.21;40.79;101044.28;5031973;28;20037;-68
2023/07/03 11:26:16;;;;;;;8.13;2.47;;;;;;;24.20;40.29;101050.63;5032283;28;20041;-68
2023/07/03 11:28:47;;;;;;;8.57;2.65;;;;;;;24.19;40.11;101040.97;5032232;28;20204;-64